sensor_id;sensor_type;location;lat;lon;timestamp;P1;durP1;ratioP1;P2;durP2;ratioP2
7080;SDS011;3582;51.506;11.948;2024-02-26T00:00:35;6.70;;;6.10;;
7080;SDS011;3582;51.506;11.948;2024-02-26T00:03:02;7.97;;;6.85;;
7080;SDS011;3582;51.506;11.948;2024-02-26T00:05:28;9.63;;;6.33;;
7080;SDS011;3582;51.506;11.948;2024-02-26T00:07:54;7.40;;;6.70;;
7080;SDS011;3582;51.506;11.948;2024-02-26T00:10:21;8.18;;;7.25;;
7080;SDS011;3582;51.506;11.948;2024-02-26T00:12:47;8.07;;;7.37;;
7080;SDS011;3582;51.506;11.948;2024-02-26T00:15:13;7.53;;;6.72;;
7080;SDS011;3582;51.506;11.948;2024-02-26T00:17:39;7.43;;;6.13;;
7080;SDS011;3582;51.506;11.948;2024-02-26T00:20:05;6.85;;;6.15;;
7080;SDS011;3582;51.506;11.948;2024-02-26T00:22:34;16.20;;;8.13;;
7080;SDS011;3582;51.506;11.948;2024-02-26T00:25:00;7.78;;;6.63;;
7080;SDS011;3582;51.506;11.948;2024-02-26T00:27:26;9.20;;;6.33;;
7080;SDS011;3582;51.506;11.948;2024-02-26T00:29:52;8.53;;;7.27;;
7080;SDS011;3582;51.506;11.948;2024-02-26T00:32:18;8.90;;;6.70;;
7080;SDS011;3582;51.506;11.948;2024-02-26T00:34:44;9.13;;;7.87;;
7080;SDS011;3582;51.506;11.948;2024-02-26T00:37:10;9.73;;;8.40;;
7080;SDS011;3582;51.506;11.948;2024-02-26T00:39:36;8.20;;;7.40;;
7080;SDS011;3582;51.506;11.948;2024-02-26T00:42:02;8.57;;;7.50;;
7080;SDS011;3582;51.506;11.948;2024-02-26T00:44:28;8.17;;;6.77;;
7080;SDS011;3582;51.506;11.948;2024-02-26T00:46:54;8.73;;;7.10;;
7080;SDS011;3582;51.506;11.948;2024-02-26T00:49:20;7.83;;;7.20;;
7080;SDS011;3582;51.506;11.948;2024-02-26T00:51:46;8.40;;;7.60;;
7080;SDS011;3582;51.506;11.948;2024-02-26T00:54:12;7.90;;;6.67;;
7080;SDS011;3582;51.506;11.948;2024-02-26T00:56:38;8.57;;;6.30;;
7080;SDS011;3582;51.506;11.948;2024-02-26T00:59:04;8.47;;;7.50;;
7080;SDS011;3582;51.506;11.948;2024-02-26T01:01:29;8.47;;;7.57;;
7080;SDS011;3582;51.506;11.948;2024-02-26T01:03:55;8.33;;;6.97;;
7080;SDS011;3582;51.506;11.948;2024-02-26T01:06:21;7.20;;;6.43;;
7080;SDS011;3582;51.506;11.948;2024-02-26T01:08:47;7.10;;;6.50;;
7080;SDS011;3582;51.506;11.948;2024-02-26T01:11:13;10.23;;;7.93;;
7080;SDS011;3582;51.506;11.948;2024-02-26T01:13:39;8.63;;;7.43;;
7080;SDS011;3582;51.506;11.948;2024-02-26T01:16:05;8.87;;;6.93;;
7080;SDS011;3582;51.506;11.948;2024-02-26T01:18:31;8.70;;;7.93;;
7080;SDS011;3582;51.506;11.948;2024-02-26T01:20:57;8.77;;;7.00;;
7080;SDS011;3582;51.506;11.948;2024-02-26T01:23:23;8.10;;;7.30;;
7080;SDS011;3582;51.506;11.948;2024-02-26T01:25:49;7.83;;;6.93;;
7080;SDS011;3582;51.506;11.948;2024-02-26T01:28:16;7.70;;;7.00;;
7080;SDS011;3582;51.506;11.948;2024-02-26T01:30:42;10.65;;;7.60;;
7080;SDS011;3582;51.506;11.948;2024-02-26T01:33:08;8.27;;;7.07;;
7080;SDS011;3582;51.506;11.948;2024-02-26T01:35:34;10.00;;;8.50;;
7080;SDS011;3582;51.506;11.948;2024-02-26T01:38:00;9.00;;;7.77;;
7080;SDS011;3582;51.506;11.948;2024-02-26T01:40:28;14.63;;;8.43;;
7080;SDS011;3582;51.506;11.948;2024-02-26T01:42:54;9.30;;;8.50;;
7080;SDS011;3582;51.506;11.948;2024-02-26T01:45:20;9.43;;;8.53;;
7080;SDS011;3582;51.506;11.948;2024-02-26T01:47:52;11.65;;;9.70;;
7080;SDS011;3582;51.506;11.948;2024-02-26T01:50:18;12.02;;;9.95;;
7080;SDS011;3582;51.506;11.948;2024-02-26T01:52:45;13.27;;;9.50;;
7080;SDS011;3582;51.506;11.948;2024-02-26T01:55:12;13.20;;;10.13;;
7080;SDS011;3582;51.506;11.948;2024-02-26T01:57:39;12.60;;;10.88;;
7080;SDS011;3582;51.506;11.948;2024-02-26T02:00:05;13.70;;;9.82;;
7080;SDS011;3582;51.506;11.948;2024-02-26T02:02:33;10.98;;;9.18;;
7080;SDS011;3582;51.506;11.948;2024-02-26T02:04:59;14.43;;;10.25;;
7080;SDS011;3582;51.506;11.948;2024-02-26T02:07:25;14.17;;;10.50;;
7080;SDS011;3582;51.506;11.948;2024-02-26T02:09:51;11.50;;;9.00;;
7080;SDS011;3582;51.506;11.948;2024-02-26T02:12:17;13.90;;;9.48;;
7080;SDS011;3582;51.506;11.948;2024-02-26T02:14:44;9.50;;;8.52;;
7080;SDS011;3582;51.506;11.948;2024-02-26T02:17:10;10.03;;;8.67;;
7080;SDS011;3582;51.506;11.948;2024-02-26T02:19:36;13.07;;;9.35;;
7080;SDS011;3582;51.506;11.948;2024-02-26T02:22:02;9.93;;;8.90;;
7080;SDS011;3582;51.506;11.948;2024-02-26T02:24:28;13.20;;;9.83;;
7080;SDS011;3582;51.506;11.948;2024-02-26T02:26:54;10.17;;;9.13;;
7080;SDS011;3582;51.506;11.948;2024-02-26T02:29:20;9.00;;;8.10;;
7080;SDS011;3582;51.506;11.948;2024-02-26T02:31:47;11.57;;;7.30;;
7080;SDS011;3582;51.506;11.948;2024-02-26T02:34:13;11.35;;;9.02;;
7080;SDS011;3582;51.506;11.948;2024-02-26T02:36:51;8.55;;;7.75;;
7080;SDS011;3582;51.506;11.948;2024-02-26T02:39:17;8.70;;;7.80;;
7080;SDS011;3582;51.506;11.948;2024-02-26T02:41:43;7.97;;;7.17;;
7080;SDS011;3582;51.506;11.948;2024-02-26T02:44:09;9.55;;;8.57;;
7080;SDS011;3582;51.506;11.948;2024-02-26T02:46:35;8.53;;;7.47;;
7080;SDS011;3582;51.506;11.948;2024-02-26T02:49:01;10.25;;;7.80;;
7080;SDS011;3582;51.506;11.948;2024-02-26T02:51:27;9.33;;;8.20;;
7080;SDS011;3582;51.506;11.948;2024-02-26T02:53:53;7.63;;;6.93;;
7080;SDS011;3582;51.506;11.948;2024-02-26T02:56:19;10.63;;;8.70;;
7080;SDS011;3582;51.506;11.948;2024-02-26T02:58:45;9.00;;;7.00;;
7080;SDS011;3582;51.506;11.948;2024-02-26T03:01:12;9.13;;;7.30;;
7080;SDS011;3582;51.506;11.948;2024-02-26T03:03:38;9.05;;;7.72;;
7080;SDS011;3582;51.506;11.948;2024-02-26T03:06:04;14.57;;;7.17;;
7080;SDS011;3582;51.506;11.948;2024-02-26T03:08:30;8.23;;;6.63;;
7080;SDS011;3582;51.506;11.948;2024-02-26T03:10:58;8.53;;;7.73;;
7080;SDS011;3582;51.506;11.948;2024-02-26T03:13:24;7.40;;;6.70;;
7080;SDS011;3582;51.506;11.948;2024-02-26T03:15:50;7.97;;;6.53;;
7080;SDS011;3582;51.506;11.948;2024-02-26T03:18:16;8.63;;;6.45;;
7080;SDS011;3582;51.506;11.948;2024-02-26T03:20:42;10.53;;;7.20;;
7080;SDS011;3582;51.506;11.948;2024-02-26T03:23:08;11.17;;;8.33;;
7080;SDS011;3582;51.506;11.948;2024-02-26T03:25:37;9.05;;;7.70;;
7080;SDS011;3582;51.506;11.948;2024-02-26T03:28:03;8.43;;;7.68;;
7080;SDS011;3582;51.506;11.948;2024-02-26T03:30:29;8.65;;;7.40;;
7080;SDS011;3582;51.506;11.948;2024-02-26T03:32:55;10.50;;;7.80;;
7080;SDS011;3582;51.506;11.948;2024-02-26T03:35:21;8.40;;;7.20;;
7080;SDS011;3582;51.506;11.948;2024-02-26T03:37:47;8.53;;;7.70;;
7080;SDS011;3582;51.506;11.948;2024-02-26T03:40:15;9.57;;;7.80;;
7080;SDS011;3582;51.506;11.948;2024-02-26T03:42:43;9.88;;;8.57;;
7080;SDS011;3582;51.506;11.948;2024-02-26T03:45:09;11.60;;;8.97;;
7080;SDS011;3582;51.506;11.948;2024-02-26T03:47:35;9.23;;;8.10;;
7080;SDS011;3582;51.506;11.948;2024-02-26T03:50:01;10.03;;;8.03;;
7080;SDS011;3582;51.506;11.948;2024-02-26T03:52:28;12.48;;;9.10;;
7080;SDS011;3582;51.506;11.948;2024-02-26T03:54:53;14.87;;;9.90;;
7080;SDS011;3582;51.506;11.948;2024-02-26T03:57:19;17.33;;;10.20;;
7080;SDS011;3582;51.506;11.948;2024-02-26T03:59:45;13.27;;;10.53;;
7080;SDS011;3582;51.506;11.948;2024-02-26T04:02:11;13.00;;;11.60;;
7080;SDS011;3582;51.506;11.948;2024-02-26T04:04:37;11.97;;;9.43;;
7080;SDS011;3582;51.506;11.948;2024-02-26T04:07:03;14.70;;;10.00;;
7080;SDS011;3582;51.506;11.948;2024-02-26T04:09:30;17.80;;;12.30;;
7080;SDS011;3582;51.506;11.948;2024-02-26T04:11:56;15.30;;;11.98;;
7080;SDS011;3582;51.506;11.948;2024-02-26T04:14:22;14.70;;;11.30;;
7080;SDS011;3582;51.506;11.948;2024-02-26T04:16:48;14.93;;;11.10;;
7080;SDS011;3582;51.506;11.948;2024-02-26T04:19:17;13.85;;;11.57;;
7080;SDS011;3582;51.506;11.948;2024-02-26T04:21:43;13.75;;;11.55;;
7080;SDS011;3582;51.506;11.948;2024-02-26T04:24:09;14.23;;;11.60;;
7080;SDS011;3582;51.506;11.948;2024-02-26T04:26:35;14.17;;;11.53;;
7080;SDS011;3582;51.506;11.948;2024-02-26T04:29:01;15.13;;;11.30;;
7080;SDS011;3582;51.506;11.948;2024-02-26T04:31:27;14.27;;;12.20;;
7080;SDS011;3582;51.506;11.948;2024-02-26T04:33:53;18.52;;;13.05;;
7080;SDS011;3582;51.506;11.948;2024-02-26T04:36:19;15.60;;;13.20;;
7080;SDS011;3582;51.506;11.948;2024-02-26T04:38:45;28.43;;;14.73;;
7080;SDS011;3582;51.506;11.948;2024-02-26T04:41:11;22.63;;;14.02;;
7080;SDS011;3582;51.506;11.948;2024-02-26T04:43:37;18.50;;;14.50;;
7080;SDS011;3582;51.506;11.948;2024-02-26T04:46:07;17.15;;;15.02;;
7080;SDS011;3582;51.506;11.948;2024-02-26T04:48:34;25.15;;;16.50;;
7080;SDS011;3582;51.506;11.948;2024-02-26T04:51:00;19.73;;;16.13;;
7080;SDS011;3582;51.506;11.948;2024-02-26T04:53:26;20.25;;;15.57;;
7080;SDS011;3582;51.506;11.948;2024-02-26T04:55:52;27.93;;;18.07;;
7080;SDS011;3582;51.506;11.948;2024-02-26T04:58:18;21.97;;;18.33;;
7080;SDS011;3582;51.506;11.948;2024-02-26T05:00:44;20.40;;;16.50;;
7080;SDS011;3582;51.506;11.948;2024-02-26T05:03:10;26.50;;;18.03;;
7080;SDS011;3582;51.506;11.948;2024-02-26T05:05:38;26.63;;;20.25;;
7080;SDS011;3582;51.506;11.948;2024-02-26T05:08:04;28.17;;;19.90;;
7080;SDS011;3582;51.506;11.948;2024-02-26T05:10:30;24.38;;;18.92;;
7080;SDS011;3582;51.506;11.948;2024-02-26T05:12:56;28.90;;;20.17;;
7080;SDS011;3582;51.506;11.948;2024-02-26T05:15:22;31.20;;;20.95;;
7080;SDS011;3582;51.506;11.948;2024-02-26T05:17:48;29.45;;;22.27;;
7080;SDS011;3582;51.506;11.948;2024-02-26T05:20:14;28.33;;;21.10;;
7080;SDS011;3582;51.506;11.948;2024-02-26T05:22:40;32.20;;;23.13;;
7080;SDS011;3582;51.506;11.948;2024-02-26T05:25:07;27.52;;;21.63;;
7080;SDS011;3582;51.506;11.948;2024-02-26T05:27:33;34.88;;;24.52;;
7080;SDS011;3582;51.506;11.948;2024-02-26T05:29:59;39.40;;;23.03;;
7080;SDS011;3582;51.506;11.948;2024-02-26T05:32:25;38.77;;;23.20;;
7080;SDS011;3582;51.506;11.948;2024-02-26T05:34:50;34.30;;;22.60;;
7080;SDS011;3582;51.506;11.948;2024-02-26T05:37:16;30.70;;;23.80;;
7080;SDS011;3582;51.506;11.948;2024-02-26T05:39:42;35.83;;;24.60;;
7080;SDS011;3582;51.506;11.948;2024-02-26T05:42:08;38.43;;;24.43;;
7080;SDS011;3582;51.506;11.948;2024-02-26T05:44:34;33.80;;;22.90;;
7080;SDS011;3582;51.506;11.948;2024-02-26T05:47:00;35.17;;;24.40;;
7080;SDS011;3582;51.506;11.948;2024-02-26T05:49:26;30.40;;;21.87;;
7080;SDS011;3582;51.506;11.948;2024-02-26T05:51:52;37.00;;;26.03;;
7080;SDS011;3582;51.506;11.948;2024-02-26T05:54:18;33.37;;;24.27;;
7080;SDS011;3582;51.506;11.948;2024-02-26T05:56:44;38.93;;;26.90;;
7080;SDS011;3582;51.506;11.948;2024-02-26T05:59:10;31.00;;;23.80;;
7080;SDS011;3582;51.506;11.948;2024-02-26T06:01:36;35.50;;;26.53;;
7080;SDS011;3582;51.506;11.948;2024-02-26T06:04:02;37.60;;;26.57;;
7080;SDS011;3582;51.506;11.948;2024-02-26T06:06:28;32.67;;;22.73;;
7080;SDS011;3582;51.506;11.948;2024-02-26T06:08:53;37.23;;;26.43;;
7080;SDS011;3582;51.506;11.948;2024-02-26T06:11:19;41.87;;;24.30;;
7080;SDS011;3582;51.506;11.948;2024-02-26T06:13:47;36.00;;;24.25;;
7080;SDS011;3582;51.506;11.948;2024-02-26T06:16:13;37.03;;;24.00;;
7080;SDS011;3582;51.506;11.948;2024-02-26T06:18:39;42.17;;;25.17;;
7080;SDS011;3582;51.506;11.948;2024-02-26T06:21:08;37.77;;;25.93;;
7080;SDS011;3582;51.506;11.948;2024-02-26T06:23:35;37.65;;;25.60;;
7080;SDS011;3582;51.506;11.948;2024-02-26T06:26:01;32.57;;;25.57;;
7080;SDS011;3582;51.506;11.948;2024-02-26T06:28:27;39.40;;;27.40;;
7080;SDS011;3582;51.506;11.948;2024-02-26T06:30:55;36.30;;;24.95;;
7080;SDS011;3582;51.506;11.948;2024-02-26T06:33:21;32.67;;;23.33;;
7080;SDS011;3582;51.506;11.948;2024-02-26T06:35:47;39.37;;;23.63;;
7080;SDS011;3582;51.506;11.948;2024-02-26T06:38:13;40.43;;;24.27;;
7080;SDS011;3582;51.506;11.948;2024-02-26T06:40:39;35.63;;;26.17;;
7080;SDS011;3582;51.506;11.948;2024-02-26T06:43:05;35.83;;;26.20;;
7080;SDS011;3582;51.506;11.948;2024-02-26T06:45:31;83.23;;;29.50;;
7080;SDS011;3582;51.506;11.948;2024-02-26T06:47:57;34.65;;;25.60;;
7080;SDS011;3582;51.506;11.948;2024-02-26T06:50:24;57.20;;;38.15;;
7080;SDS011;3582;51.506;11.948;2024-02-26T06:52:50;34.83;;;27.33;;
7080;SDS011;3582;51.506;11.948;2024-02-26T06:55:15;43.23;;;24.63;;
7080;SDS011;3582;51.506;11.948;2024-02-26T06:57:42;42.75;;;27.30;;
7080;SDS011;3582;51.506;11.948;2024-02-26T07:00:08;31.37;;;22.87;;
7080;SDS011;3582;51.506;11.948;2024-02-26T07:02:39;32.50;;;24.58;;
7080;SDS011;3582;51.506;11.948;2024-02-26T07:05:05;33.42;;;25.15;;
7080;SDS011;3582;51.506;11.948;2024-02-26T07:07:31;38.63;;;25.17;;
7080;SDS011;3582;51.506;11.948;2024-02-26T07:09:57;41.63;;;28.67;;
7080;SDS011;3582;51.506;11.948;2024-02-26T07:12:23;35.47;;;25.77;;
7080;SDS011;3582;51.506;11.948;2024-02-26T07:14:49;30.48;;;22.35;;
7080;SDS011;3582;51.506;11.948;2024-02-26T07:17:17;28.90;;;21.48;;
7080;SDS011;3582;51.506;11.948;2024-02-26T07:19:43;32.57;;;21.00;;
7080;SDS011;3582;51.506;11.948;2024-02-26T07:22:09;27.10;;;22.43;;
7080;SDS011;3582;51.506;11.948;2024-02-26T07:24:35;26.27;;;20.40;;
7080;SDS011;3582;51.506;11.948;2024-02-26T07:27:00;31.83;;;19.30;;
7080;SDS011;3582;51.506;11.948;2024-02-26T07:29:26;23.70;;;19.20;;
7080;SDS011;3582;51.506;11.948;2024-02-26T07:31:52;27.97;;;19.70;;
7080;SDS011;3582;51.506;11.948;2024-02-26T07:34:18;24.20;;;19.30;;
7080;SDS011;3582;51.506;11.948;2024-02-26T07:36:44;27.97;;;21.50;;
7080;SDS011;3582;51.506;11.948;2024-02-26T07:39:10;28.50;;;20.47;;
7080;SDS011;3582;51.506;11.948;2024-02-26T07:41:36;31.50;;;20.63;;
7080;SDS011;3582;51.506;11.948;2024-02-26T07:44:03;23.73;;;18.98;;
7080;SDS011;3582;51.506;11.948;2024-02-26T07:46:30;26.38;;;19.88;;
7080;SDS011;3582;51.506;11.948;2024-02-26T07:48:55;26.73;;;20.97;;
7080;SDS011;3582;51.506;11.948;2024-02-26T07:51:21;27.73;;;19.70;;
7080;SDS011;3582;51.506;11.948;2024-02-26T07:53:47;30.10;;;21.10;;
7080;SDS011;3582;51.506;11.948;2024-02-26T07:56:13;27.83;;;19.73;;
7080;SDS011;3582;51.506;11.948;2024-02-26T07:58:39;29.97;;;20.70;;
7080;SDS011;3582;51.506;11.948;2024-02-26T08:01:05;20.58;;;18.48;;
7080;SDS011;3582;51.506;11.948;2024-02-26T08:03:31;22.90;;;17.58;;
7080;SDS011;3582;51.506;11.948;2024-02-26T08:05:57;24.40;;;20.27;;
7080;SDS011;3582;51.506;11.948;2024-02-26T08:08:23;23.17;;;18.83;;
7080;SDS011;3582;51.506;11.948;2024-02-26T08:10:49;31.77;;;20.87;;
7080;SDS011;3582;51.506;11.948;2024-02-26T08:13:15;25.50;;;18.50;;
7080;SDS011;3582;51.506;11.948;2024-02-26T08:15:41;20.73;;;16.93;;
7080;SDS011;3582;51.506;11.948;2024-02-26T08:18:07;21.63;;;17.30;;
7080;SDS011;3582;51.506;11.948;2024-02-26T08:20:33;21.85;;;16.15;;
7080;SDS011;3582;51.506;11.948;2024-02-26T08:22:59;19.53;;;16.40;;
7080;SDS011;3582;51.506;11.948;2024-02-26T08:25:25;23.97;;;17.63;;
7080;SDS011;3582;51.506;11.948;2024-02-26T08:27:51;18.35;;;15.93;;
7080;SDS011;3582;51.506;11.948;2024-02-26T08:30:17;19.95;;;16.90;;
7080;SDS011;3582;51.506;11.948;2024-02-26T08:32:44;28.17;;;17.45;;
7080;SDS011;3582;51.506;11.948;2024-02-26T08:35:10;20.08;;;16.17;;
7080;SDS011;3582;51.506;11.948;2024-02-26T08:37:36;23.80;;;18.63;;
7080;SDS011;3582;51.506;11.948;2024-02-26T08:40:02;25.20;;;17.80;;
7080;SDS011;3582;51.506;11.948;2024-02-26T08:42:31;24.88;;;17.02;;
7080;SDS011;3582;51.506;11.948;2024-02-26T08:44:57;21.55;;;18.10;;
7080;SDS011;3582;51.506;11.948;2024-02-26T08:47:26;21.15;;;15.98;;
7080;SDS011;3582;51.506;11.948;2024-02-26T08:49:53;19.73;;;15.70;;
7080;SDS011;3582;51.506;11.948;2024-02-26T08:52:19;19.40;;;16.13;;
7080;SDS011;3582;51.506;11.948;2024-02-26T08:54:46;21.13;;;17.60;;
7080;SDS011;3582;51.506;11.948;2024-02-26T08:57:12;19.80;;;16.83;;
7080;SDS011;3582;51.506;11.948;2024-02-26T08:59:38;22.37;;;17.10;;
7080;SDS011;3582;51.506;11.948;2024-02-26T09:02:04;21.33;;;19.00;;
7080;SDS011;3582;51.506;11.948;2024-02-26T09:04:30;23.67;;;15.83;;
7080;SDS011;3582;51.506;11.948;2024-02-26T09:06:56;24.40;;;16.87;;
7080;SDS011;3582;51.506;11.948;2024-02-26T09:09:22;24.77;;;18.30;;
7080;SDS011;3582;51.506;11.948;2024-02-26T09:11:50;19.80;;;15.05;;
7080;SDS011;3582;51.506;11.948;2024-02-26T09:14:17;18.40;;;16.17;;
7080;SDS011;3582;51.506;11.948;2024-02-26T09:16:43;19.55;;;16.80;;
7080;SDS011;3582;51.506;11.948;2024-02-26T09:19:08;21.40;;;17.47;;
7080;SDS011;3582;51.506;11.948;2024-02-26T09:21:34;17.53;;;15.73;;
7080;SDS011;3582;51.506;11.948;2024-02-26T09:24:00;20.40;;;16.13;;
7080;SDS011;3582;51.506;11.948;2024-02-26T09:26:26;20.35;;;16.65;;
7080;SDS011;3582;51.506;11.948;2024-02-26T09:28:52;20.00;;;16.33;;
7080;SDS011;3582;51.506;11.948;2024-02-26T09:31:18;20.83;;;15.90;;
7080;SDS011;3582;51.506;11.948;2024-02-26T09:33:44;19.00;;;15.40;;
7080;SDS011;3582;51.506;11.948;2024-02-26T09:36:11;23.23;;;16.73;;
7080;SDS011;3582;51.506;11.948;2024-02-26T09:38:37;21.07;;;17.47;;
7080;SDS011;3582;51.506;11.948;2024-02-26T09:41:04;19.80;;;15.95;;
7080;SDS011;3582;51.506;11.948;2024-02-26T09:43:34;23.00;;;15.98;;
7080;SDS011;3582;51.506;11.948;2024-02-26T09:46:05;19.00;;;15.93;;
7080;SDS011;3582;51.506;11.948;2024-02-26T09:48:31;18.07;;;15.07;;
7080;SDS011;3582;51.506;11.948;2024-02-26T09:50:58;19.52;;;14.23;;
7080;SDS011;3582;51.506;11.948;2024-02-26T09:53:25;18.13;;;16.20;;
7080;SDS011;3582;51.506;11.948;2024-02-26T09:55:51;17.67;;;15.77;;
7080;SDS011;3582;51.506;11.948;2024-02-26T09:58:17;16.67;;;14.73;;
7080;SDS011;3582;51.506;11.948;2024-02-26T10:00:46;24.77;;;15.45;;
7080;SDS011;3582;51.506;11.948;2024-02-26T10:03:13;29.73;;;19.05;;
7080;SDS011;3582;51.506;11.948;2024-02-26T10:05:40;20.90;;;14.63;;
7080;SDS011;3582;51.506;11.948;2024-02-26T10:08:07;22.30;;;18.88;;
7080;SDS011;3582;51.506;11.948;2024-02-26T10:10:33;28.13;;;20.88;;
7080;SDS011;3582;51.506;11.948;2024-02-26T10:13:00;17.35;;;14.27;;
7080;SDS011;3582;51.506;11.948;2024-02-26T10:15:26;16.35;;;13.45;;
7080;SDS011;3582;51.506;11.948;2024-02-26T10:17:52;15.60;;;13.38;;
7080;SDS011;3582;51.506;11.948;2024-02-26T10:20:18;17.87;;;12.30;;
7080;SDS011;3582;51.506;11.948;2024-02-26T10:22:48;19.25;;;14.57;;
7080;SDS011;3582;51.506;11.948;2024-02-26T10:25:14;18.02;;;13.98;;
7080;SDS011;3582;51.506;11.948;2024-02-26T10:27:40;14.73;;;12.50;;
7080;SDS011;3582;51.506;11.948;2024-02-26T10:30:16;17.30;;;14.00;;
7080;SDS011;3582;51.506;11.948;2024-02-26T10:32:43;17.70;;;13.88;;
7080;SDS011;3582;51.506;11.948;2024-02-26T10:35:10;12.30;;;11.00;;
7080;SDS011;3582;51.506;11.948;2024-02-26T10:37:36;13.50;;;12.07;;
7080;SDS011;3582;51.506;11.948;2024-02-26T10:40:02;17.97;;;12.33;;
7080;SDS011;3582;51.506;11.948;2024-02-26T10:42:28;13.05;;;11.75;;
7080;SDS011;3582;51.506;11.948;2024-02-26T10:44:54;15.30;;;12.00;;
7080;SDS011;3582;51.506;11.948;2024-02-26T10:47:20;14.33;;;10.37;;
7080;SDS011;3582;51.506;11.948;2024-02-26T10:49:47;15.07;;;11.75;;
7080;SDS011;3582;51.506;11.948;2024-02-26T10:52:13;15.75;;;12.20;;
7080;SDS011;3582;51.506;11.948;2024-02-26T10:54:39;16.20;;;12.57;;
7080;SDS011;3582;51.506;11.948;2024-02-26T10:57:10;12.05;;;10.80;;
7080;SDS011;3582;51.506;11.948;2024-02-26T10:59:37;14.60;;;11.45;;
7080;SDS011;3582;51.506;11.948;2024-02-26T11:02:04;13.50;;;11.80;;
7080;SDS011;3582;51.506;11.948;2024-02-26T11:04:31;18.13;;;11.53;;
7080;SDS011;3582;51.506;11.948;2024-02-26T11:06:57;16.38;;;12.20;;
7080;SDS011;3582;51.506;11.948;2024-02-26T11:09:23;11.93;;;10.73;;
7080;SDS011;3582;51.506;11.948;2024-02-26T11:11:50;15.27;;;11.30;;
7080;SDS011;3582;51.506;11.948;2024-02-26T11:14:19;11.52;;;10.32;;
7080;SDS011;3582;51.506;11.948;2024-02-26T11:16:46;17.10;;;13.43;;
7080;SDS011;3582;51.506;11.948;2024-02-26T11:19:13;16.37;;;14.27;;
7080;SDS011;3582;51.506;11.948;2024-02-26T11:21:39;13.27;;;11.97;;
7080;SDS011;3582;51.506;11.948;2024-02-26T11:24:13;15.43;;;12.70;;
7080;SDS011;3582;51.506;11.948;2024-02-26T11:26:41;12.60;;;9.53;;
7080;SDS011;3582;51.506;11.948;2024-02-26T11:29:10;34.33;;;15.25;;
7080;SDS011;3582;51.506;11.948;2024-02-26T11:31:37;12.68;;;11.43;;
7080;SDS011;3582;51.506;11.948;2024-02-26T11:34:03;13.33;;;9.10;;
7080;SDS011;3582;51.506;11.948;2024-02-26T11:36:29;16.00;;;10.17;;
7080;SDS011;3582;51.506;11.948;2024-02-26T11:38:55;11.20;;;9.83;;
7080;SDS011;3582;51.506;11.948;2024-02-26T11:41:22;10.97;;;8.90;;
7080;SDS011;3582;51.506;11.948;2024-02-26T11:43:51;13.50;;;9.90;;
7080;SDS011;3582;51.506;11.948;2024-02-26T11:46:24;22.93;;;11.70;;
7080;SDS011;3582;51.506;11.948;2024-02-26T11:48:50;10.50;;;8.80;;
7080;SDS011;3582;51.506;11.948;2024-02-26T11:51:16;10.23;;;9.13;;
7080;SDS011;3582;51.506;11.948;2024-02-26T11:53:46;16.30;;;11.80;;
7080;SDS011;3582;51.506;11.948;2024-02-26T11:59:03;16.90;;;12.60;;
7080;SDS011;3582;51.506;11.948;2024-02-26T12:01:45;16.33;;;12.93;;
7080;SDS011;3582;51.506;11.948;2024-02-26T12:04:24;11.57;;;9.47;;
7080;SDS011;3582;51.506;11.948;2024-02-26T12:06:52;11.33;;;9.17;;
7080;SDS011;3582;51.506;11.948;2024-02-26T12:09:32;10.13;;;9.17;;
7080;SDS011;3582;51.506;11.948;2024-02-26T12:11:59;11.27;;;8.43;;
7080;SDS011;3582;51.506;11.948;2024-02-26T12:14:26;10.60;;;8.20;;
7080;SDS011;3582;51.506;11.948;2024-02-26T12:16:52;9.00;;;8.13;;
7080;SDS011;3582;51.506;11.948;2024-02-26T12:19:18;15.60;;;9.60;;
7080;SDS011;3582;51.506;11.948;2024-02-26T12:21:44;10.17;;;7.63;;
7080;SDS011;3582;51.506;11.948;2024-02-26T12:24:11;9.67;;;8.20;;
7080;SDS011;3582;51.506;11.948;2024-02-26T12:26:38;9.73;;;7.50;;
7080;SDS011;3582;51.506;11.948;2024-02-26T12:29:04;9.07;;;8.13;;
7080;SDS011;3582;51.506;11.948;2024-02-26T12:31:30;10.43;;;8.27;;
7080;SDS011;3582;51.506;11.948;2024-02-26T12:33:56;13.00;;;7.63;;
7080;SDS011;3582;51.506;11.948;2024-02-26T12:36:22;10.40;;;7.97;;
7080;SDS011;3582;51.506;11.948;2024-02-26T12:38:50;12.53;;;8.60;;
7080;SDS011;3582;51.506;11.948;2024-02-26T12:41:16;12.90;;;10.57;;
7080;SDS011;3582;51.506;11.948;2024-02-26T12:43:42;19.80;;;12.60;;
7080;SDS011;3582;51.506;11.948;2024-02-26T12:46:08;20.93;;;13.23;;
7080;SDS011;3582;51.506;11.948;2024-02-26T12:48:34;17.30;;;12.60;;
7080;SDS011;3582;51.506;11.948;2024-02-26T12:51:00;16.33;;;13.20;;
7080;SDS011;3582;51.506;11.948;2024-02-26T12:53:26;14.50;;;12.97;;
7080;SDS011;3582;51.506;11.948;2024-02-26T12:55:55;23.27;;;14.70;;
7080;SDS011;3582;51.506;11.948;2024-02-26T12:58:21;18.17;;;12.90;;
7080;SDS011;3582;51.506;11.948;2024-02-26T13:00:50;18.87;;;14.70;;
7080;SDS011;3582;51.506;11.948;2024-02-26T13:03:16;16.40;;;12.97;;
7080;SDS011;3582;51.506;11.948;2024-02-26T13:05:43;13.60;;;12.20;;
7080;SDS011;3582;51.506;11.948;2024-02-26T13:08:09;14.40;;;13.03;;
7080;SDS011;3582;51.506;11.948;2024-02-26T13:10:35;18.00;;;14.67;;
7080;SDS011;3582;51.506;11.948;2024-02-26T13:13:02;13.90;;;12.40;;
7080;SDS011;3582;51.506;11.948;2024-02-26T13:15:28;13.40;;;12.13;;
7080;SDS011;3582;51.506;11.948;2024-02-26T13:17:54;16.77;;;14.70;;
7080;SDS011;3582;51.506;11.948;2024-02-26T13:20:30;14.17;;;12.77;;
7080;SDS011;3582;51.506;11.948;2024-02-26T13:23:00;15.40;;;12.37;;
7080;SDS011;3582;51.506;11.948;2024-02-26T13:25:26;20.40;;;13.83;;
7080;SDS011;3582;51.506;11.948;2024-02-26T13:27:52;16.87;;;13.40;;
7080;SDS011;3582;51.506;11.948;2024-02-26T13:30:18;14.30;;;12.80;;
7080;SDS011;3582;51.506;11.948;2024-02-26T13:32:44;14.53;;;12.87;;
7080;SDS011;3582;51.506;11.948;2024-02-26T13:35:12;14.57;;;13.07;;
7080;SDS011;3582;51.506;11.948;2024-02-26T13:37:39;14.37;;;12.83;;
7080;SDS011;3582;51.506;11.948;2024-02-26T13:40:05;13.07;;;11.87;;
7080;SDS011;3582;51.506;11.948;2024-02-26T13:42:31;13.80;;;12.50;;
7080;SDS011;3582;51.506;11.948;2024-02-26T13:44:58;13.37;;;12.00;;
7080;SDS011;3582;51.506;11.948;2024-02-26T13:47:24;14.27;;;12.70;;
7080;SDS011;3582;51.506;11.948;2024-02-26T13:49:50;16.03;;;13.57;;
7080;SDS011;3582;51.506;11.948;2024-02-26T13:52:15;13.30;;;12.00;;
7080;SDS011;3582;51.506;11.948;2024-02-26T13:54:41;13.23;;;11.87;;
7080;SDS011;3582;51.506;11.948;2024-02-26T13:57:07;15.70;;;11.60;;
7080;SDS011;3582;51.506;11.948;2024-02-26T13:59:34;11.53;;;10.30;;
7080;SDS011;3582;51.506;11.948;2024-02-26T14:02:00;12.87;;;11.47;;
7080;SDS011;3582;51.506;11.948;2024-02-26T14:04:26;11.33;;;10.30;;
7080;SDS011;3582;51.506;11.948;2024-02-26T14:06:52;14.73;;;12.73;;
7080;SDS011;3582;51.506;11.948;2024-02-26T14:09:18;15.20;;;11.60;;
7080;SDS011;3582;51.506;11.948;2024-02-26T14:11:45;15.50;;;13.90;;
7080;SDS011;3582;51.506;11.948;2024-02-26T14:14:11;14.27;;;12.37;;
7080;SDS011;3582;51.506;11.948;2024-02-26T14:16:37;17.03;;;15.30;;
7080;SDS011;3582;51.506;11.948;2024-02-26T14:19:02;15.00;;;13.50;;
7080;SDS011;3582;51.506;11.948;2024-02-26T14:21:29;15.10;;;13.30;;
7080;SDS011;3582;51.506;11.948;2024-02-26T14:23:55;15.20;;;13.80;;
7080;SDS011;3582;51.506;11.948;2024-02-26T14:26:22;20.47;;;15.03;;
7080;SDS011;3582;51.506;11.948;2024-02-26T14:28:48;16.73;;;14.30;;
7080;SDS011;3582;51.506;11.948;2024-02-26T14:31:17;13.97;;;12.43;;
7080;SDS011;3582;51.506;11.948;2024-02-26T14:33:43;14.60;;;12.57;;
7080;SDS011;3582;51.506;11.948;2024-02-26T14:36:09;15.47;;;13.87;;
7080;SDS011;3582;51.506;11.948;2024-02-26T14:38:35;16.53;;;14.23;;